Terminal Aerodrome Forecast
Issued by NWS Sioux Falls, SD

Home | Current Version | Previous Version | Text Only | Print | Product List | Glossary On
Versions: 1 2 3 4 5 6 7 8 9 10 11 12 13 14 15 16
000
FTUS43 KFSD 291700 RRA
TAFFSD
TAF
KFSD 291745Z 2918/3018 33007KT P6SM BKN060
     FM300200 VRB02KT P6SM SKC
     FM301600 01006KT P6SM FEW040=

USA.gov is the U.S. government's official web portal to all federal, state and local government web resources and services.